Time;durP1;ratioP1;P1;durP2;ratioP2;P2;SDS_P1;SDS_P2;PMS_P1;PMS_P2;Temp;Humidity;BMP_temperature;BMP_pressure;BME280_temperature;BME280_humidity;BME280_pressure;Samples;Min_cycle;Max_cycle;Signal;HPM_P1;HPM_P2
2022/11/05 00:11:17;;;;;;;4.03;2.55;;;18.70;99.90;;;;;;4153104;28;20609;-73
2022/11/05 00:17:59;;;;;;;3.63;2.80;;;18.80;99.90;;;;;;4152843;28;20193;-72
2022/11/05 00:20:02;;;;;;;4.32;3.05;;;18.70;99.90;;;;;;4146299;28;20271;-72
2022/11/05 00:26:45;;;;;;;3.38;2.80;;;18.70;99.90;;;;;;4152223;28;20212;-72
2022/11/05 00:28:47;;;;;;;3.20;2.40;;;18.70;99.90;;;;;;4150833;28;20283;-72
2022/11/05 00:30:49;;;;;;;3.38;2.50;;;18.70;99.90;;;;;;4150265;28;20274;-72
2022/11/05 00:32:52;;;;;;;3.67;2.90;;;18.70;99.90;;;;;;4151702;28;20221;-72
2022/11/05 00:34:55;;;;;;;4.20;2.75;;;18.70;99.90;;;;;;4152831;28;20310;-72
2022/11/05 00:36:57;;;;;;;3.40;2.53;;;18.70;99.90;;;;;;4148567;28;20841;-72
2022/11/05 00:39:01;;;;;;;4.25;2.78;;;18.70;99.90;;;;;;4151446;28;21079;-72
2022/11/05 00:41:03;;;;;;;4.68;3.35;;;18.70;99.90;;;;;;4145197;28;20577;-72
2022/11/05 00:45:25;;;;;;;3.67;2.78;;;18.60;99.90;;;;;;4151951;28;20649;-72
2022/11/05 00:49:47;;;;;;;5.45;3.30;;;18.60;99.90;;;;;;4147326;28;20661;-72
2022/11/05 00:52:54;;;;;;;5.38;3.15;;;18.60;99.90;;;;;;4146515;28;20264;-73
2022/11/05 00:54:13;;;;;;;7.55;2.60;;;18.60;99.90;;;;;;4144422;28;20213;-72
2022/11/05 00:56:15;;;;;;;4.00;3.08;;;18.60;99.90;;;;;;4143549;28;20293;-72
2022/11/05 00:58:20;;;;;;;4.15;2.55;;;18.70;99.90;;;;;;4144957;28;20232;-72
2022/11/05 01:00:23;;;;;;;4.95;2.85;;;18.60;99.90;;;;;;4143318;28;20267;-73
2022/11/05 01:02:25;;;;;;;4.07;2.72;;;18.60;99.90;;;;;;4143887;28;20271;-72
2022/11/05 01:04:27;;;;;;;3.40;2.75;;;18.60;99.90;;;;;;4144066;28;20704;-72
2022/11/05 01:06:30;;;;;;;4.68;2.97;;;18.60;99.90;;;;;;4144247;28;20228;-72
2022/11/05 01:08:32;;;;;;;5.50;3.10;;;18.60;99.90;;;;;;4143016;28;20283;-72
2022/11/05 01:10:40;;;;;;;3.80;3.00;;;18.60;99.90;;;;;;4145715;28;20225;-73
2022/11/05 01:12:42;;;;;;;3.53;2.92;;;18.50;99.90;;;;;;4143130;28;20614;-72
2022/11/05 01:14:44;;;;;;;2.85;2.55;;;18.60;99.90;;;;;;4144347;28;20648;-72
2022/11/05 01:16:47;;;;;;;4.72;2.95;;;18.50;99.90;;;;;;4144463;28;20225;-73
2022/11/05 01:18:49;;;;;;;3.97;2.80;;;18.50;99.90;;;;;;4144407;28;20232;-72
2022/11/05 01:20:51;;;;;;;4.43;2.97;;;18.60;99.90;;;;;;4144174;28;20217;-72
2022/11/05 01:22:54;;;;;;;3.58;2.53;;;18.60;99.90;;;;;;4144476;28;20221;-72
2022/11/05 01:24:56;;;;;;;4.78;2.60;;;18.50;99.90;;;;;;4144227;28;20272;-73
2022/11/05 01:27:00;;;;;;;4.43;2.47;;;18.60;99.90;;;;;;4144878;28;20649;-73
2022/11/05 01:29:02;;;;;;;4.72;2.63;;;18.50;99.90;;;;;;4144218;28;20221;-73
2022/11/05 01:31:04;;;;;;;4.43;3.00;;;18.50;99.90;;;;;;4143538;28;20592;-72
2022/11/05 01:33:07;;;;;;;3.80;2.80;;;18.50;99.90;;;;;;4143550;28;20246;-73
2022/11/05 01:35:13;;;;;;;5.22;3.03;;;18.50;99.90;;;;;;4144097;28;20240;-72
2022/11/05 01:37:15;;;;;;;4.60;3.20;;;18.50;99.90;;;;;;4144077;28;20265;-73
2022/11/05 01:39:17;;;;;;;4.28;3.40;;;18.50;99.90;;;;;;4144060;28;20571;-72
2022/11/05 01:41:20;;;;;;;3.33;2.80;;;18.50;99.90;;;;;;4143125;28;20619;-73
2022/11/05 01:43:23;;;;;;;5.10;3.00;;;18.50;99.90;;;;;;4144439;28;20823;-72
2022/11/05 01:45:27;;;;;;;9.05;3.22;;;18.50;99.90;;;;;;4141829;28;20285;-73
2022/11/05 01:47:41;;;;;;;4.43;2.75;;;18.50;99.90;;;;;;4146115;28;20209;-73
2022/11/05 01:49:43;;;;;;;4.07;2.95;;;18.50;99.90;;;;;;4142170;28;20221;-72
2022/11/05 01:51:47;;;;;;;3.55;2.85;;;18.50;99.90;;;;;;4144096;28;20229;-73
2022/11/05 01:53:53;;;;;;;3.95;2.65;;;18.50;99.90;;;;;;4145923;28;20213;-72
2022/11/05 01:55:59;;;;;;;3.78;3.00;;;18.50;99.90;;;;;;4144828;28;20295;-72
2022/11/05 01:58:04;;;;;;;3.88;2.53;;;18.40;99.90;;;;;;4148693;28;20224;-72
2022/11/05 02:00:09;;;;;;;2.92;2.58;;;18.50;99.90;;;;;;4144455;28;20269;-72
2022/11/05 02:02:11;;;;;;;3.95;2.45;;;18.50;99.90;;;;;;4147534;28;20216;-73
2022/11/05 02:04:21;;;;;;;5.50;3.20;;;18.40;99.90;;;;;;4149841;28;20320;-72
2022/11/05 02:06:25;;;;;;;4.72;3.05;;;18.50;99.90;;;;;;4149713;28;20255;-73
2022/11/05 02:08:40;;;;;;;4.10;3.20;;;18.50;99.90;;;;;;4153132;28;20271;-72
2022/11/05 02:10:44;;;;;;;3.92;2.97;;;18.40;99.90;;;;;;4153167;28;20233;-72
2022/11/05 02:12:48;;;;;;;4.53;3.20;;;18.40;99.90;;;;;;4150573;28;20279;-72
2022/11/05 02:14:50;;;;;;;4.07;2.80;;;18.40;99.90;;;;;;4151171;28;20260;-72
2022/11/05 02:16:59;;;;;;;4.68;2.60;;;18.40;99.90;;;;;;4151822;28;20291;-73
2022/11/05 02:19:13;;;;;;;3.85;3.08;;;18.40;99.90;;;;;;4153996;28;20282;-72
2022/11/05 02:21:46;;;;;;;4.53;3.05;;;18.40;99.90;;;;;;4148869;28;20270;-73
2022/11/05 02:24:14;;;;;;;4.05;2.53;;;18.40;99.90;;;;;;4149691;28;20217;-72
2022/11/05 02:26:47;;;;;;;5.32;3.30;;;18.40;99.90;;;;;;4151126;28;20255;-72
2022/11/05 02:29:08;;;;;;;4.40;3.00;;;18.40;99.90;;;;;;4151391;28;20228;-73
2022/11/05 02:31:19;;;;;;;4.90;2.95;;;18.40;99.90;;;;;;4151633;28;20216;-72
2022/11/05 02:33:38;;;;;;;7.65;2.67;;;18.40;99.90;;;;;;4148137;28;20720;-73
2022/11/05 02:36:02;;;;;;;3.83;2.80;;;18.40;99.90;;;;;;4146775;28;20249;-72
2022/11/05 02:38:08;;;;;;;5.07;3.10;;;18.40;99.90;;;;;;4149277;28;20225;-73
2022/11/05 02:40:17;;;;;;;5.00;3.00;;;18.40;99.90;;;;;;4150285;28;20259;-72
2022/11/05 02:42:30;;;;;;;4.28;2.80;;;18.40;99.90;;;;;;4148384;28;20220;-72
2022/11/05 02:44:40;;;;;;;4.63;2.83;;;18.30;99.90;;;;;;4151119;28;20232;-72
2022/11/05 02:46:50;;;;;;;3.40;2.50;;;18.30;99.90;;;;;;4151435;28;20691;-73
2022/11/05 02:48:58;;;;;;;4.38;3.22;;;18.30;99.90;;;;;;4149456;28;20633;-72
2022/11/05 02:51:08;;;;;;;3.97;3.47;;;18.30;99.90;;;;;;4154362;28;20216;-73
2022/11/05 02:53:16;;;;;;;4.30;2.60;;;18.40;99.90;;;;;;4147869;28;20217;-72
2022/11/05 02:55:25;;;;;;;4.30;2.83;;;18.30;99.90;;;;;;4150065;28;20220;-72
2022/11/05 02:57:29;;;;;;;3.55;2.67;;;18.30;99.90;;;;;;4147478;28;20225;-73
2022/11/05 02:59:31;;;;;;;4.75;2.67;;;18.30;99.90;;;;;;4146963;28;20744;-73
2022/11/05 03:01:35;;;;;;;4.32;2.83;;;18.30;99.90;;;;;;4151030;28;20267;-72
2022/11/05 03:03:42;;;;;;;3.65;2.42;;;18.30;99.90;;;;;;4149651;28;20314;-72
2022/11/05 03:05:55;;;;;;;4.28;2.80;;;18.30;99.90;;;;;;4149488;28;20221;-72
2022/11/05 03:08:07;;;;;;;4.90;2.80;;;18.30;99.90;;;;;;4151596;28;20225;-73
2022/11/05 03:10:27;;;;;;;4.32;3.13;;;18.30;99.90;;;;;;4151449;28;20258;-73
2022/11/05 03:12:39;;;;;;;4.80;3.08;;;18.30;99.90;;;;;;4151740;28;20278;-72
2022/11/05 03:14:52;;;;;;;3.55;2.65;;;18.30;99.90;;;;;;4147967;28;20279;-72
2022/11/05 03:17:01;;;;;;;3.75;2.70;;;18.30;99.90;;;;;;4150640;28;20229;-73
2022/11/05 03:19:11;;;;;;;4.47;3.15;;;18.30;99.90;;;;;;4147799;28;20220;-72
2022/11/05 03:21:21;;;;;;;4.45;2.95;;;18.20;99.90;;;;;;4149923;28;20275;-72
2022/11/05 03:23:28;;;;;;;6.25;2.95;;;18.20;99.90;;;;;;4149654;28;20250;-73
2022/11/05 03:25:32;;;;;;;3.95;2.65;;;18.20;99.90;;;;;;4149447;28;20208;-73
2022/11/05 03:27:38;;;;;;;3.75;2.90;;;18.20;99.90;;;;;;4148862;28;20274;-72
2022/11/05 03:29:46;;;;;;;4.22;2.75;;;18.20;99.90;;;;;;4147608;28;21116;-72
2022/11/05 03:31:50;;;;;;;3.40;2.72;;;18.20;99.90;;;;;;4146440;28;20213;-73
2022/11/05 03:33:53;;;;;;;4.47;2.78;;;18.20;99.90;;;;;;4143391;28;20628;-73
2022/11/05 03:36:01;;;;;;;4.03;2.80;;;18.20;99.90;;;;;;4149658;28;20286;-72
2022/11/05 03:38:10;;;;;;;4.05;2.90;;;18.20;99.90;;;;;;4149789;28;20279;-72
2022/11/05 03:40:16;;;;;;;4.43;2.95;;;18.20;99.90;;;;;;4148691;28;20267;-73
2022/11/05 03:42:24;;;;;;;3.67;2.70;;;18.20;99.90;;;;;;4151091;28;20492;-72
2022/11/05 03:44:29;;;;;;;5.07;2.90;;;18.20;99.90;;;;;;4150788;28;20596;-78
2022/11/05 03:46:35;;;;;;;5.05;2.58;;;18.20;99.90;;;;;;4150241;28;20259;-77
2022/11/05 03:48:41;;;;;;;4.07;3.08;;;18.20;99.90;;;;;;4148246;28;20216;-77
2022/11/05 03:50:51;;;;;;;4.00;2.63;;;18.20;99.90;;;;;;4148962;28;20569;-77
2022/11/05 03:52:59;;;;;;;6.03;3.00;;;18.20;99.90;;;;;;4147118;28;20221;-78
2022/11/05 03:55:02;;;;;;;3.88;2.63;;;18.20;99.90;;;;;;4149319;28;20221;-78
2022/11/05 03:57:08;;;;;;;4.00;2.85;;;18.10;99.90;;;;;;4147980;28;20287;-77
2022/11/05 03:59:11;;;;;;;4.85;2.80;;;18.10;99.90;;;;;;4146198;28;20221;-77
2022/11/05 04:01:14;;;;;;;3.17;2.53;;;18.20;99.90;;;;;;4151952;28;20225;-77
2022/11/05 04:03:17;;;;;;;5.90;3.10;;;18.10;99.90;;;;;;4151142;28;20301;-78
2022/11/05 04:05:19;;;;;;;4.18;2.60;;;18.20;99.90;;;;;;4151102;28;20224;-77
2022/11/05 04:14:31;;;;;;;4.95;2.88;;;18.10;99.90;;;;;;4151108;28;20196;-77
2022/11/05 04:18:53;;;;;;;5.10;3.28;;;18.10;99.90;;;;;;4147816;28;21068;-77
2022/11/05 04:25:36;;;;;;;4.28;2.75;;;18.10;99.90;;;;;;4149508;28;20654;-77
2022/11/05 04:27:38;;;;;;;3.85;2.80;;;18.10;99.90;;;;;;4147083;28;20213;-77
2022/11/05 04:32:00;;;;;;;5.45;2.80;;;18.10;99.90;;;;;;4144943;28;20205;-77
2022/11/05 04:34:03;;;;;;;4.53;2.60;;;18.10;99.90;;;;;;4148949;28;20217;-77
2022/11/05 04:36:06;;;;;;;3.30;2.83;;;18.10;99.90;;;;;;4151947;28;20291;-77
2022/11/05 04:38:10;;;;;;;4.32;2.78;;;18.10;99.90;;;;;;4149349;28;20270;-78
2022/11/05 04:40:12;;;;;;;3.75;3.00;;;18.00;99.90;;;;;;4149475;28;20283;-77
2022/11/05 04:42:15;;;;;;;4.43;2.95;;;18.00;99.90;;;;;;4151331;28;20221;-78
2022/11/05 04:44:18;;;;;;;4.78;2.90;;;18.00;99.90;;;;;;4150830;28;20239;-77
2022/11/05 04:46:20;;;;;;;6.20;3.13;;;18.10;99.90;;;;;;4150030;28;20689;-77
2022/11/05 04:48:22;;;;;;;4.03;2.90;;;18.00;99.90;;;;;;4148876;28;20212;-78
2022/11/05 04:50:25;;;;;;;5.65;3.05;;;18.00;99.90;;;;;;4150049;28;20279;-77
2022/11/05 04:52:27;;;;;;;4.55;2.78;;;18.00;99.90;;;;;;4146203;28;20274;-77
2022/11/05 04:54:30;;;;;;;4.13;2.60;;;18.00;99.90;;;;;;4150646;28;20233;-77
2022/11/05 04:56:32;;;;;;;4.22;2.85;;;18.00;99.90;;;;;;4150970;28;20256;-77
2022/11/05 04:58:38;;;;;;;3.58;2.70;;;18.00;99.90;;;;;;4147215;28;20278;-77
2022/11/05 05:00:41;;;;;;;4.57;3.00;;;18.00;99.90;;;;;;4147556;28;20213;-77
2022/11/05 05:02:43;;;;;;;4.50;3.05;;;18.00;99.90;;;;;;4147823;28;20217;-78
2022/11/05 05:04:45;;;;;;;4.90;2.90;;;18.00;99.90;;;;;;4150494;28;20605;-78
2022/11/05 05:06:48;;;;;;;5.50;3.15;;;18.00;99.90;;;;;;4149639;28;20220;-77
2022/11/05 05:08:51;;;;;;;4.05;2.88;;;18.00;99.90;;;;;;4147852;28;20275;-77
2022/11/05 05:10:53;;;;;;;4.93;3.20;;;18.00;99.90;;;;;;4144828;28;20288;-77
2022/11/05 05:12:56;;;;;;;5.13;2.85;;;18.00;99.90;;;;;;4147140;28;20615;-77
2022/11/05 05:14:59;;;;;;;5.50;3.20;;;18.00;99.90;;;;;;4148154;28;20229;-77
2022/11/05 05:17:02;;;;;;;4.72;2.90;;;18.00;99.90;;;;;;4149262;28;20248;-77
2022/11/05 05:19:04;;;;;;;5.35;3.13;;;18.00;99.90;;;;;;4150934;28;20253;-77
2022/11/05 05:23:26;;;;;;;4.80;2.88;;;18.00;99.90;;;;;;4145031;28;20197;-77
2022/11/05 05:25:29;;;;;;;5.93;3.13;;;18.00;99.90;;;;;;4145144;28;20216;-77
2022/11/05 05:27:31;;;;;;;6.65;3.22;;;17.90;99.90;;;;;;4146198;28;20263;-77
2022/11/05 05:29:33;;;;;;;5.05;3.13;;;17.90;99.90;;;;;;4152803;28;20224;-77
2022/11/05 05:31:37;;;;;;;3.90;2.80;;;17.90;99.90;;;;;;4154927;28;20224;-77
2022/11/05 05:33:39;;;;;;;5.13;3.40;;;18.00;99.90;;;;;;4151513;28;20225;-77
2022/11/05 05:35:42;;;;;;;3.78;2.70;;;18.00;99.90;;;;;;4152815;28;20275;-77
2022/11/05 05:37:44;;;;;;;4.32;3.50;;;18.00;99.90;;;;;;4151123;28;20260;-77
2022/11/05 05:39:47;;;;;;;5.82;2.90;;;17.90;99.90;;;;;;4153097;28;20269;-78
2022/11/05 05:41:49;;;;;;;4.25;2.90;;;18.00;99.90;;;;;;4154159;28;20220;-77
2022/11/05 05:43:51;;;;;;;4.85;3.13;;;17.90;99.90;;;;;;4153107;28;20220;-77
2022/11/05 05:45:56;;;;;;;4.68;2.97;;;17.90;99.90;;;;;;4152901;28;20262;-77
2022/11/05 05:47:59;;;;;;;4.97;3.50;;;17.90;99.90;;;;;;4153710;28;20267;-77
2022/11/05 05:50:01;;;;;;;3.17;2.30;;;17.90;99.90;;;;;;4151752;28;20233;-77
2022/11/05 05:52:04;;;;;;;4.38;3.08;;;17.90;99.90;;;;;;4152868;28;20233;-77
2022/11/05 05:54:06;;;;;;;5.43;2.85;;;17.90;99.90;;;;;;4150502;28;20219;-77
2022/11/05 05:56:09;;;;;;;4.60;3.22;;;17.90;99.90;;;;;;4154681;28;20274;-77
2022/11/05 05:58:11;;;;;;;5.53;3.08;;;17.90;99.90;;;;;;4153726;28;20295;-77
2022/11/05 06:00:14;;;;;;;4.47;3.28;;;17.90;99.90;;;;;;4153024;28;20337;-77
2022/11/05 06:02:16;;;;;;;5.95;3.80;;;17.90;99.90;;;;;;4152009;28;20520;-77
2022/11/05 06:04:20;;;;;;;4.75;3.20;;;17.90;99.90;;;;;;4153848;28;20779;-77
2022/11/05 06:06:22;;;;;;;5.40;3.22;;;17.90;99.90;;;;;;4154152;28;20217;-77
2022/11/05 06:08:25;;;;;;;5.53;3.42;;;17.80;99.90;;;;;;4154429;28;20264;-77
2022/11/05 06:10:27;;;;;;;4.95;3.03;;;17.80;99.90;;;;;;4154021;28;20217;-77
2022/11/05 06:12:30;;;;;;;4.18;3.10;;;17.80;99.90;;;;;;4151116;28;20217;-77
2022/11/05 06:14:32;;;;;;;4.80;3.00;;;17.90;99.90;;;;;;4150316;28;20673;-77
2022/11/05 06:16:35;;;;;;;4.78;3.08;;;17.80;99.90;;;;;;4153164;28;20728;-77
2022/11/05 06:18:37;;;;;;;5.70;3.10;;;17.90;99.90;;;;;;4154897;28;20858;-77
2022/11/05 06:20:41;;;;;;;3.90;2.90;;;17.80;99.90;;;;;;4148057;28;20217;-77
2022/11/05 06:22:43;;;;;;;3.50;2.95;;;17.80;99.90;;;;;;4154448;28;20315;-77
2022/11/05 06:24:46;;;;;;;5.18;3.28;;;17.80;99.90;;;;;;4155274;28;20547;-77
2022/11/05 06:26:48;;;;;;;5.53;3.22;;;17.80;99.90;;;;;;4151761;28;20748;-77
2022/11/05 06:28:50;;;;;;;6.05;3.03;;;17.80;99.90;;;;;;4148258;28;20224;-77
2022/11/05 06:30:53;;;;;;;5.47;2.90;;;17.80;99.90;;;;;;4156066;28;20611;-76
2022/11/05 06:32:55;;;;;;;4.82;3.45;;;17.80;99.90;;;;;;4154381;28;20221;-77
2022/11/05 06:34:57;;;;;;;4.55;3.20;;;17.80;99.90;;;;;;4152843;28;20421;-77
2022/11/05 06:37:01;;;;;;;5.22;3.20;;;17.80;99.90;;;;;;4154057;28;20267;-77
2022/11/05 06:39:03;;;;;;;5.47;2.97;;;17.80;99.90;;;;;;4151098;28;20221;-77
2022/11/05 06:41:06;;;;;;;4.05;3.00;;;17.80;99.90;;;;;;4151142;28;20217;-78
2022/11/05 06:43:09;;;;;;;5.78;3.25;;;17.80;99.90;;;;;;4151531;28;20260;-77
2022/11/05 06:45:11;;;;;;;6.70;3.47;;;17.80;99.90;;;;;;4149516;28;20225;-77
2022/11/05 06:47:13;;;;;;;5.50;3.10;;;17.80;99.90;;;;;;4147502;28;20225;-77
2022/11/05 06:49:15;;;;;;;4.88;3.00;;;17.80;99.90;;;;;;4150223;28;20221;-77
2022/11/05 06:51:18;;;;;;;5.28;3.00;;;17.80;99.90;;;;;;4148141;28;20291;-77
2022/11/05 06:53:22;;;;;;;4.57;3.00;;;17.80;99.90;;;;;;4152475;28;20270;-77
2022/11/05 06:55:25;;;;;;;6.10;2.80;;;17.80;99.90;;;;;;4149328;28;20238;-77
2022/11/05 06:57:27;;;;;;;6.07;3.35;;;17.80;99.90;;;;;;4149212;28;20224;-77
2022/11/05 06:59:29;;;;;;;4.00;2.90;;;17.80;99.90;;;;;;4148585;28;20276;-78
2022/11/05 07:01:32;;;;;;;4.78;3.10;;;17.70;99.90;;;;;;4147499;28;20217;-78
2022/11/05 07:03:35;;;;;;;4.85;3.35;;;17.80;99.90;;;;;;4149770;28;20309;-77
2022/11/05 07:05:40;;;;;;;4.03;2.83;;;17.80;99.90;;;;;;4148686;28;20225;-78
2022/11/05 07:07:43;;;;;;;4.80;3.05;;;17.80;99.90;;;;;;4148269;28;20221;-77
2022/11/05 07:09:47;;;;;;;4.20;3.17;;;17.80;99.90;;;;;;4149993;28;20677;-77
2022/11/05 07:11:49;;;;;;;5.10;2.70;;;17.70;99.90;;;;;;4142064;28;20205;-77
2022/11/05 07:13:51;;;;;;;4.57;3.20;;;17.70;99.90;;;;;;4150949;28;20228;-77
2022/11/05 07:15:53;;;;;;;4.90;3.20;;;17.80;99.90;;;;;;4150173;28;20326;-73
2022/11/05 07:17:58;;;;;;;4.32;3.08;;;17.80;99.90;;;;;;4147757;28;21532;-73
2022/11/05 07:20:00;;;;;;;4.30;3.03;;;17.80;99.90;;;;;;4148708;28;20284;-72
2022/11/05 07:22:03;;;;;;;5.13;3.15;;;17.80;99.90;;;;;;4150387;28;20221;-72
2022/11/05 07:24:06;;;;;;;4.75;3.00;;;17.80;99.90;;;;;;4148320;28;20275;-72
2022/11/05 07:26:10;;;;;;;4.13;2.95;;;17.70;99.90;;;;;;4148564;28;20213;-72
2022/11/05 07:28:13;;;;;;;4.75;3.22;;;17.80;99.90;;;;;;4148908;28;20275;-72
2022/11/05 07:30:15;;;;;;;5.03;3.00;;;17.70;99.90;;;;;;4145678;28;20283;-72
2022/11/05 07:32:17;;;;;;;5.22;3.03;;;17.80;99.90;;;;;;4149931;28;20268;-72
2022/11/05 07:34:20;;;;;;;4.45;2.65;;;17.70;99.90;;;;;;4148828;28;20225;-73
2022/11/05 07:36:22;;;;;;;6.47;2.78;;;17.70;99.90;;;;;;4151901;28;20224;-72
2022/11/05 07:38:25;;;;;;;7.00;3.40;;;17.80;99.90;;;;;;4152588;28;20276;-72
2022/11/05 07:40:28;;;;;;;5.47;3.10;;;17.70;99.90;;;;;;4152629;28;20358;-72
2022/11/05 07:42:34;;;;;;;5.18;2.95;;;17.80;99.90;;;;;;4149398;28;20225;-72
2022/11/05 07:44:37;;;;;;;5.28;3.20;;;17.70;99.90;;;;;;4147281;28;20233;-72
2022/11/05 07:46:39;;;;;;;4.53;3.00;;;17.70;99.90;;;;;;4148865;28;20267;-72
2022/11/05 07:48:41;;;;;;;4.15;2.88;;;17.80;99.90;;;;;;4149144;28;20278;-72
2022/11/05 07:50:43;;;;;;;3.58;3.05;;;17.80;99.90;;;;;;4149322;28;20577;-72
2022/11/05 07:52:46;;;;;;;4.57;3.00;;;17.70;99.90;;;;;;4149545;28;20221;-72
2022/11/05 07:54:49;;;;;;;5.95;3.20;;;17.70;99.90;;;;;;4148439;28;20672;-73
2022/11/05 07:56:51;;;;;;;5.47;2.97;;;17.80;99.90;;;;;;4150338;28;20229;-72
2022/11/05 07:58:55;;;;;;;5.50;3.53;;;17.70;99.90;;;;;;4146140;28;20260;-72
2022/11/05 08:00:57;;;;;;;4.60;2.97;;;17.80;99.90;;;;;;4152660;28;20247;-72
2022/11/05 08:03:01;;;;;;;4.30;3.00;;;17.80;99.90;;;;;;4152073;28;20720;-73
2022/11/05 08:05:03;;;;;;;4.63;3.45;;;17.70;99.90;;;;;;4151440;28;20217;-72
2022/11/05 08:07:06;;;;;;;5.22;3.20;;;17.80;99.90;;;;;;4145017;28;20296;-72
2022/11/05 08:09:09;;;;;;;4.40;3.00;;;17.70;99.90;;;;;;4150199;28;20220;-72
2022/11/05 08:11:12;;;;;;;4.90;3.10;;;17.70;99.90;;;;;;4152204;28;20871;-72
2022/11/05 08:13:14;;;;;;;4.65;2.80;;;17.70;99.90;;;;;;4152276;28;20291;-72
2022/11/05 08:15:18;;;;;;;5.35;3.00;;;17.80;99.90;;;;;;4148019;28;21239;-72
2022/11/05 08:17:21;;;;;;;5.15;2.75;;;17.80;99.90;;;;;;4147279;28;20221;-72
2022/11/05 08:19:23;;;;;;;5.40;3.13;;;17.80;99.90;;;;;;4149226;28;20233;-73
2022/11/05 08:21:25;;;;;;;4.65;3.30;;;17.80;99.90;;;;;;4149871;28;20270;-73
2022/11/05 08:23:28;;;;;;;5.40;3.00;;;17.80;99.90;;;;;;4148960;28;20221;-73
2022/11/05 08:25:31;;;;;;;3.90;2.67;;;17.80;99.90;;;;;;4148149;28;20226;-72
2022/11/05 08:27:33;;;;;;;4.90;2.70;;;17.80;99.90;;;;;;4145764;28;20221;-73
2022/11/05 08:29:35;;;;;;;4.85;2.92;;;17.80;99.90;;;;;;4149702;28;20654;-73
2022/11/05 08:31:39;;;;;;;4.07;2.83;;;17.80;99.90;;;;;;4150086;28;20233;-73
2022/11/05 08:33:42;;;;;;;3.88;2.90;;;17.80;99.90;;;;;;4145995;28;20252;-73
2022/11/05 08:35:44;;;;;;;4.53;2.70;;;17.80;99.90;;;;;;4149134;28;20255;-73
2022/11/05 08:37:47;;;;;;;5.20;3.08;;;17.80;99.90;;;;;;4149801;28;20988;-72
2022/11/05 08:39:49;;;;;;;4.63;2.90;;;17.80;99.90;;;;;;4147594;28;20241;-72
2022/11/05 08:41:51;;;;;;;4.82;2.83;;;17.80;99.90;;;;;;4149554;28;20690;-73
2022/11/05 08:43:55;;;;;;;4.80;2.90;;;17.70;99.90;;;;;;4150315;28;20267;-72
2022/11/05 08:45:59;;;;;;;4.25;2.90;;;17.80;99.90;;;;;;4148335;28;20262;-72
2022/11/05 08:48:05;;;;;;;4.03;2.83;;;17.80;99.90;;;;;;4148149;28;20218;-72
2022/11/05 08:50:08;;;;;;;4.30;2.60;;;17.80;99.90;;;;;;4146226;28;20225;-73
2022/11/05 08:52:10;;;;;;;3.85;2.80;;;17.80;99.90;;;;;;4151286;28;20635;-73
2022/11/05 08:54:13;;;;;;;4.85;2.85;;;17.80;99.90;;;;;;4148365;28;20606;-73
2022/11/05 08:56:15;;;;;;;6.07;2.55;;;17.80;99.90;;;;;;4149602;28;20917;-72
2022/11/05 08:58:19;;;;;;;5.38;2.70;;;17.80;99.90;;;;;;4147905;28;20595;-72
2022/11/05 09:00:21;;;;;;;4.35;2.72;;;17.80;99.90;;;;;;4147748;28;20278;-72
2022/11/05 09:02:24;;;;;;;4.68;2.55;;;17.80;99.90;;;;;;4148108;28;20624;-73
2022/11/05 09:04:28;;;;;;;4.63;2.85;;;17.80;99.90;;;;;;4147255;28;20282;-72
2022/11/05 09:06:30;;;;;;;2.78;2.50;;;17.80;99.90;;;;;;4147099;28;20229;-73
2022/11/05 09:08:32;;;;;;;5.13;2.95;;;17.80;99.90;;;;;;4146110;28;20228;-73
2022/11/05 09:10:35;;;;;;;4.15;2.60;;;17.90;99.90;;;;;;4149018;28;20288;-72
2022/11/05 09:12:37;;;;;;;3.53;2.67;;;17.90;99.90;;;;;;4149947;28;20658;-73
2022/11/05 09:14:40;;;;;;;3.35;2.63;;;17.80;99.90;;;;;;4148387;28;20229;-72
2022/11/05 09:16:42;;;;;;;4.78;3.08;;;17.80;99.90;;;;;;4146609;28;20287;-73
2022/11/05 09:18:45;;;;;;;4.05;2.60;;;17.80;99.90;;;;;;4146859;28;20209;-72
2022/11/05 09:20:48;;;;;;;3.33;2.45;;;17.90;99.90;;;;;;4151631;28;20640;-72
2022/11/05 09:22:51;;;;;;;5.53;3.08;;;17.90;99.90;;;;;;4149736;28;20968;-72
2022/11/05 09:24:53;;;;;;;4.20;2.60;;;17.90;99.90;;;;;;4148956;28;20658;-73
2022/11/05 09:26:55;;;;;;;6.13;2.88;;;17.90;99.90;;;;;;4150339;28;20319;-72
2022/11/05 09:29:00;;;;;;;3.15;2.53;;;17.90;99.90;;;;;;4149808;28;20217;-73
2022/11/05 09:31:06;;;;;;;3.90;2.90;;;17.90;99.90;;;;;;4147249;28;20243;-72
2022/11/05 09:33:09;;;;;;;4.00;2.50;;;17.90;99.90;;;;;;4150745;28;20247;-73
2022/11/05 09:35:11;;;;;;;4.32;2.78;;;17.90;99.90;;;;;;4148453;28;20270;-72
2022/11/05 09:37:15;;;;;;;4.35;2.92;;;17.90;99.90;;;;;;4146410;28;20267;-72
2022/11/05 09:39:17;;;;;;;3.33;2.58;;;18.00;99.90;;;;;;4148231;28;20244;-72
2022/11/05 09:41:28;;;;;;;3.90;2.63;;;17.90;99.90;;;;;;4145832;28;20279;-73
2022/11/05 09:43:36;;;;;;;3.65;2.65;;;18.00;99.90;;;;;;4148666;28;20219;-73
2022/11/05 09:45:39;;;;;;;5.50;2.78;;;18.00;99.90;;;;;;4148372;28;20282;-73
2022/11/05 09:47:45;;;;;;;5.35;2.58;;;17.90;99.90;;;;;;4148713;28;20275;-73
2022/11/05 09:49:51;;;;;;;5.22;3.05;;;18.00;99.90;;;;;;4145528;28;20213;-72
2022/11/05 09:51:55;;;;;;;3.50;2.47;;;18.00;99.90;;;;;;4146938;28;20583;-72
2022/11/05 09:53:59;;;;;;;4.28;2.72;;;18.00;99.90;;;;;;4146988;28;20267;-72
2022/11/05 09:56:02;;;;;;;3.80;2.45;;;17.90;99.90;;;;;;4150716;28;20260;-72
2022/11/05 09:58:23;;;;;;;3.67;2.47;;;18.00;99.90;;;;;;4147681;28;20220;-72
2022/11/05 10:00:25;;;;;;;4.60;2.58;;;18.00;99.90;;;;;;4144452;28;20298;-72
2022/11/05 10:02:32;;;;;;;4.35;2.70;;;18.00;99.90;;;;;;4150398;28;20217;-72
2022/11/05 10:04:35;;;;;;;3.63;2.55;;;18.00;99.90;;;;;;4153212;28;20253;-72
2022/11/05 10:06:43;;;;;;;5.05;3.00;;;18.00;99.90;;;;;;4150109;28;20267;-77
2022/11/05 10:08:49;;;;;;;3.72;2.55;;;18.00;99.90;;;;;;4147426;28;20685;-77
2022/11/05 10:10:56;;;;;;;5.32;2.38;;;18.00;99.90;;;;;;4148412;28;20224;-77
2022/11/05 10:13:02;;;;;;;4.25;2.63;;;18.00;99.90;;;;;;4148376;28;20268;-77
2022/11/05 10:15:12;;;;;;;3.95;2.50;;;18.00;99.90;;;;;;4149232;28;20233;-77
2022/11/05 10:17:21;;;;;;;3.13;2.33;;;18.00;99.90;;;;;;4152182;28;20228;-77
2022/11/05 10:19:26;;;;;;;4.88;2.63;;;18.00;99.90;;;;;;4152168;28;20657;-77
2022/11/05 10:21:30;;;;;;;4.65;2.53;;;18.00;99.90;;;;;;4152988;28;20310;-77
2022/11/05 10:23:33;;;;;;;3.95;2.78;;;18.00;99.90;;;;;;4150412;28;20256;-77
2022/11/05 10:25:39;;;;;;;4.47;2.55;;;18.00;99.90;;;;;;4154866;28;20270;-77
2022/11/05 10:27:49;;;;;;;3.60;2.40;;;18.00;99.90;;;;;;4150171;28;20275;-76
2022/11/05 10:29:52;;;;;;;4.78;2.55;;;18.00;99.90;;;;;;4150182;28;20221;-76
2022/11/05 10:31:55;;;;;;;3.42;2.38;;;18.00;99.90;;;;;;4150837;28;20224;-77
2022/11/05 10:34:01;;;;;;;5.10;2.42;;;18.00;99.90;;;;;;4149805;28;20225;-77
2022/11/05 10:36:06;;;;;;;5.00;2.35;;;18.00;99.90;;;;;;4153440;28;20217;-77
2022/11/05 10:38:14;;;;;;;4.35;2.60;;;18.10;99.90;;;;;;4151752;28;20268;-77
2022/11/05 10:40:26;;;;;;;3.88;2.65;;;18.00;99.90;;;;;;4150098;28;20236;-77
2022/11/05 10:42:43;;;;;;;2.85;2.38;;;18.10;99.90;;;;;;4152305;28;20221;-77
2022/11/05 10:44:53;;;;;;;3.92;2.33;;;18.10;99.90;;;;;;4153723;28;21466;-77
2022/11/05 10:47:08;;;;;;;6.38;3.00;;;18.10;99.90;;;;;;4146740;28;20254;-77
2022/11/05 10:49:21;;;;;;;5.30;2.70;;;18.10;99.90;;;;;;4148554;28;20263;-77
2022/11/05 10:51:24;;;;;;;3.03;2.22;;;18.10;99.90;;;;;;4148422;28;20264;-77
2022/11/05 10:53:30;;;;;;;4.35;2.90;;;18.10;99.90;;;;;;4151008;28;20253;-77
2022/11/05 10:55:36;;;;;;;4.65;2.35;;;18.10;99.90;;;;;;4151457;28;20220;-77
2022/11/05 10:57:40;;;;;;;4.05;2.40;;;18.10;99.90;;;;;;4150571;28;20213;-77
2022/11/05 10:59:43;;;;;;;5.75;2.50;;;18.10;99.90;;;;;;4148177;28;20240;-77
2022/11/05 11:01:46;;;;;;;4.07;2.30;;;18.10;99.90;;;;;;4151108;28;20636;-77
2022/11/05 11:03:52;;;;;;;4.22;2.53;;;18.10;99.90;;;;;;4149868;28;20240;-77
2022/11/05 11:06:00;;;;;;;3.30;2.20;;;18.10;99.90;;;;;;4150960;28;20290;-77
2022/11/05 11:08:17;;;;;;;3.20;2.45;;;18.10;99.90;;;;;;4150033;28;20233;-77
2022/11/05 11:10:25;;;;;;;2.78;2.40;;;18.20;99.90;;;;;;4151981;28;20619;-77
2022/11/05 11:12:32;;;;;;;5.82;2.47;;;18.10;99.90;;;;;;4151708;28;20689;-77
2022/11/05 11:14:34;;;;;;;3.92;2.38;;;18.10;99.90;;;;;;4151621;28;20217;-77
2022/11/05 11:16:39;;;;;;;4.30;2.85;;;18.20;99.90;;;;;;4152558;28;20220;-77
2022/11/05 11:18:44;;;;;;;2.97;2.38;;;18.20;99.90;;;;;;4149483;28;20262;-77
2022/11/05 11:20:46;;;;;;;3.15;2.42;;;18.10;99.90;;;;;;4148717;28;20276;-77
2022/11/05 11:23:03;;;;;;;3.70;2.10;;;18.10;99.90;;;;;;4147780;28;20228;-77
2022/11/05 11:25:23;;;;;;;3.72;2.50;;;18.10;99.90;;;;;;4148003;28;20297;-77
2022/11/05 11:27:28;;;;;;;3.97;2.35;;;18.20;99.90;;;;;;4147697;28;20308;-77
2022/11/05 11:29:34;;;;;;;3.33;2.30;;;18.10;99.90;;;;;;4146097;28;20271;-77
2022/11/05 11:31:39;;;;;;;3.03;2.03;;;18.10;99.90;;;;;;4147705;28;20229;-77
2022/11/05 11:33:46;;;;;;;4.05;2.53;;;18.10;99.90;;;;;;4148369;28;20233;-77